createdAt,value
2018-09-24T00:00:27.803Z,45.166016
2018-09-24T00:00:57.342Z,45.76416
2018-09-24T00:01:26.605Z,45.361328
2018-09-24T00:01:56.147Z,45.263672
2018-09-24T00:02:25.457Z,45.062256
2018-09-24T00:02:54.797Z,45.184326
2018-09-24T00:03:24.243Z,45.385742
2018-09-24T00:03:53.554Z,45.587158
2018-09-24T00:04:23.067Z,45.587158
2018-09-24T00:04:52.605Z,45.184326
2018-09-24T00:05:22.321Z,45.184326
2018-09-24T00:05:51.617Z,45.184326
2018-09-24T00:06:21.170Z,45.263672
2018-09-24T00:06:50.860Z,45.263672
2018-09-24T00:07:20.366Z,45.166016
2018-09-24T00:07:49.946Z,45.062256
2018-09-24T00:08:19.287Z,45.166016
2018-09-24T00:08:48.874Z,45.263672
2018-09-24T00:09:18.320Z,45.263672
2018-09-24T00:09:47.620Z,44.866943
2018-09-24T00:10:16.897Z,44.866943
2018-09-24T00:10:46.186Z,45.263672
2018-09-24T00:11:15.601Z,45.288086
2018-09-24T00:11:45.017Z,45.184326
2018-09-24T00:12:14.518Z,44.885254
2018-09-24T00:12:43.850Z,45.288086
2018-09-24T00:13:13.135Z,45.184326
2018-09-24T00:13:42.613Z,45.385742
2018-09-24T00:14:11.902Z,45.184326
2018-09-24T00:14:41.461Z,45.184326
2018-09-24T00:15:11.044Z,45.184326
2018-09-24T00:15:40.491Z,45.08667
2018-09-24T00:16:09.892Z,45.08667
2018-09-24T00:16:39.222Z,44.787598
2018-09-24T00:17:08.747Z,45.184326
2018-09-24T00:17:38.324Z,44.989014
2018-09-24T00:18:07.731Z,44.885254
2018-09-24T00:18:37.150Z,44.885254
2018-09-24T00:19:06.427Z,44.989014
2018-09-24T00:19:37.755Z,44.989014
2018-09-24T00:20:08.735Z,45.08667
2018-09-24T00:20:37.986Z,45.184326
2018-09-24T00:21:07.256Z,44.989014
2018-09-24T00:21:36.522Z,45.08667
2018-09-24T00:22:05.801Z,45.08667
2018-09-24T00:22:35.065Z,45.288086
2018-09-24T00:23:04.650Z,45.404053
2018-09-24T00:23:33.909Z,45.507812
2018-09-24T00:24:03.441Z,45.507812
2018-09-24T00:24:33.911Z,45.825195
2018-09-24T00:25:03.280Z,46.026611
2018-09-24T00:25:32.885Z,46.026611
2018-09-24T00:26:02.164Z,46.252441
2018-09-24T00:26:31.548Z,46.447754
2018-09-24T00:27:01.139Z,46.447754
2018-09-24T00:27:30.390Z,46.64917
2018-09-24T00:28:00.736Z,46.64917
2018-09-24T00:28:31.535Z,46.64917
2018-09-24T00:29:01.088Z,46.746826
2018-09-24T00:29:30.659Z,46.746826
2018-09-24T00:30:00.089Z,46.64917
2018-09-24T00:30:29.600Z,46.64917
2018-09-24T00:30:59.934Z,46.923828
2018-09-24T00:31:29.571Z,46.325684
2018-09-24T00:31:59.480Z,46.325684
2018-09-24T00:32:29.684Z,46.026611
2018-09-24T00:32:58.972Z,46.130371
2018-09-24T00:33:28.545Z,46.447754
2018-09-24T00:33:58.134Z,46.746826
2018-09-24T00:34:27.409Z,47.070312
2018-09-24T00:34:56.708Z,47.296143
2018-09-24T00:35:26.168Z,47.393799
2018-09-24T00:35:55.454Z,47.296143
2018-09-24T00:36:24.908Z,47.192383
2018-09-24T00:36:54.788Z,47.192383
2018-09-24T00:37:24.408Z,47.192383
2018-09-24T00:37:54.207Z,47.192383
2018-09-24T00:38:23.559Z,47.174072
2018-09-24T00:38:52.825Z,47.070312
2018-09-24T00:39:22.746Z,46.948242
2018-09-24T00:39:52.267Z,47.149658
2018-09-24T00:40:21.754Z,46.350098
2018-09-24T00:40:51.059Z,46.325684
2018-09-24T00:41:20.508Z,46.130371
2018-09-24T00:41:49.836Z,46.026611
2018-09-24T00:42:19.145Z,45.806885
2018-09-24T00:42:48.497Z,45.709229
2018-09-24T00:43:17.805Z,45.605469
2018-09-24T00:43:47.198Z,45.605469
2018-09-24T00:44:16.476Z,45.507812
2018-09-24T00:44:45.748Z,45.306396
2018-09-24T00:45:15.039Z,45.288086
2018-09-24T00:45:44.396Z,45.306396
2018-09-24T00:46:13.649Z,45.288086
2018-09-24T00:46:42.935Z,45.385742
2018-09-24T00:47:13.187Z,45.184326
2018-09-24T00:47:43.513Z,45.08667
2018-09-24T00:48:12.770Z,45.288086
2018-09-24T00:48:42.159Z,45.184326
2018-09-24T00:49:11.448Z,44.689941
2018-09-24T00:49:40.756Z,44.287109
2018-09-24T00:50:10.024Z,44.506836
2018-09-24T00:50:39.297Z,46.203613
2018-09-24T00:51:09.545Z,46.502686
2018-09-24T00:51:38.796Z,46.679688
2018-09-24T00:52:08.071Z,45.288086
2018-09-24T00:52:38.320Z,44.689941
2018-09-24T00:53:07.621Z,44.885254
2018-09-24T00:53:36.907Z,44.989014
2018-09-24T00:54:06.260Z,44.586182
2018-09-24T00:54:35.530Z,44.586182
2018-09-24T00:55:04.803Z,45.361328
2018-09-24T00:55:34.067Z,44.366455
2018-09-24T00:56:04.371Z,44.567871
2018-09-24T00:56:33.656Z,44.165039
2018-09-24T00:57:02.914Z,44.165039
2018-09-24T00:57:32.216Z,44.165039
2018-09-24T00:58:01.508Z,44.165039
2018-09-24T00:58:30.805Z,44.189453
2018-09-24T00:59:00.145Z,44.287109
2018-09-24T00:59:29.443Z,44.384766
2018-09-24T00:59:59.760Z,44.287109
2018-09-24T01:00:29.088Z,46.97876
2018-09-24T01:00:58.420Z,44.586182
2018-09-24T01:01:27.720Z,44.488525
2018-09-24T01:01:56.995Z,44.488525
2018-09-24T01:02:26.270Z,44.885254
2018-09-24T01:02:55.534Z,44.488525
2018-09-24T01:03:24.817Z,44.586182
2018-09-24T01:03:54.120Z,44.610596
2018-09-24T01:04:23.434Z,44.610596
2018-09-24T01:04:52.715Z,44.830322
2018-09-24T01:05:22.037Z,45.227051
2018-09-24T01:05:51.366Z,45.452881
2018-09-24T01:06:20.646Z,45.550537
2018-09-24T01:06:49.974Z,45.751953
2018-09-24T01:07:19.246Z,45.874023
2018-09-24T01:07:48.572Z,46.173096
2018-09-24T01:08:17.920Z,46.069336
2018-09-24T01:08:47.193Z,46.069336
2018-09-24T01:09:16.566Z,45.97168
2018-09-24T01:09:46.851Z,45.770264
2018-09-24T01:10:17.167Z,45.672607
2018-09-24T01:10:46.513Z,45.550537
2018-09-24T01:11:15.804Z,45.349121
2018-09-24T01:11:45.117Z,45.251465
2018-09-24T01:12:14.418Z,45.349121
2018-09-24T01:12:43.729Z,46.551514
2018-09-24T01:13:13.060Z,45.727539
2018-09-24T01:13:42.364Z,45.428467
2018-09-24T01:14:11.677Z,45.227051
2018-09-24T01:14:41.144Z,44.53125
2018-09-24T01:15:10.430Z,44.732666
2018-09-24T01:15:39.778Z,44.53125
2018-09-24T01:16:09.210Z,44.53125
2018-09-24T01:16:38.520Z,44.830322
2018-09-24T01:17:07.830Z,44.830322
2018-09-24T01:17:37.106Z,45.129395
2018-09-24T01:18:06.403Z,44.610596
2018-09-24T01:18:35.721Z,44.506836
2018-09-24T01:19:04.970Z,44.805908
2018-09-24T01:19:34.274Z,44.805908
2018-09-24T01:20:03.611Z,45.330811
2018-09-24T01:20:32.910Z,45.648193
2018-09-24T01:21:02.200Z,45.751953
2018-09-24T01:21:31.472Z,45.550537
2018-09-24T01:22:00.812Z,45.349121
2018-09-24T01:22:30.180Z,45.349121
2018-09-24T01:22:59.470Z,45.349121
2018-09-24T01:23:28.799Z,45.452881
2018-09-24T01:23:58.107Z,45.629883
2018-09-24T01:24:27.457Z,45.428467
2018-09-24T01:24:56.785Z,45.227051
2018-09-24T01:25:26.155Z,45.129395
2018-09-24T01:25:55.431Z,45.031738
2018-09-24T01:26:24.699Z,45.031738
2018-09-24T01:26:53.985Z,45.10498
2018-09-24T01:27:23.294Z,45.227051
2018-09-24T01:27:52.610Z,45.20874
2018-09-24T01:28:21.936Z,45.10498
2018-09-24T01:28:51.241Z,45.20874
2018-09-24T01:29:20.625Z,45.10498
2018-09-24T01:29:50.965Z,45.10498
2018-09-24T01:30:20.304Z,45.10498
2018-09-24T01:30:49.607Z,44.909668
2018-09-24T01:31:19.938Z,44.909668
2018-09-24T01:31:49.274Z,45.10498
2018-09-24T01:32:18.592Z,45.605469
2018-09-24T01:32:47.921Z,45.08667
2018-09-24T01:33:17.237Z,44.586182
2018-09-24T01:33:46.561Z,44.787598
2018-09-24T01:34:15.921Z,45.08667
2018-09-24T01:34:45.202Z,44.689941
2018-09-24T01:35:14.574Z,44.384766
2018-09-24T01:35:43.867Z,44.384766
2018-09-24T01:36:13.212Z,45.385742
2018-09-24T01:36:42.530Z,43.988037
2018-09-24T01:37:11.868Z,44.110107
2018-09-24T01:37:41.157Z,44.311523
2018-09-24T01:38:10.495Z,44.506836
2018-09-24T01:38:39.793Z,44.805908
2018-09-24T01:39:09.147Z,44.610596
2018-09-24T01:39:38.484Z,45.605469
2018-09-24T01:40:07.829Z,44.708252
2018-09-24T01:40:37.121Z,44.506836
2018-09-24T01:41:06.460Z,44.40918
2018-09-24T01:41:35.767Z,44.110107
2018-09-24T01:42:05.043Z,44.207764
2018-09-24T01:42:34.312Z,44.311523
2018-09-24T01:43:03.573Z,44.311523
2018-09-24T01:43:32.832Z,44.628906
2018-09-24T01:44:02.113Z,44.830322
2018-09-24T01:44:31.353Z,44.909668
2018-09-24T01:45:00.621Z,44.506836
2018-09-24T01:45:29.943Z,44.232178
2018-09-24T01:45:59.207Z,44.329834
2018-09-24T01:46:28.456Z,44.53125
2018-09-24T01:46:57.716Z,44.53125
2018-09-24T01:47:26.979Z,44.830322
2018-09-24T01:47:56.257Z,44.42749
2018-09-24T01:48:25.524Z,44.329834
2018-09-24T01:48:54.766Z,44.65332
2018-09-24T01:49:24.039Z,44.848633
2018-09-24T01:49:53.282Z,44.451904
2018-09-24T01:50:22.595Z,44.65332
2018-09-24T01:50:51.846Z,45.672607
2018-09-24T01:51:21.138Z,45.996094
2018-09-24T01:51:50.378Z,46.392822
2018-09-24T01:52:19.658Z,46.295166
2018-09-24T01:52:48.949Z,46.392822
2018-09-24T01:53:18.221Z,46.09375
2018-09-24T01:53:47.481Z,45.874023
2018-09-24T01:54:16.754Z,45.770264
2018-09-24T01:54:46.999Z,45.770264
2018-09-24T01:55:16.277Z,45.550537
2018-09-24T01:55:46.578Z,45.349121
2018-09-24T01:56:15.858Z,45.251465
2018-09-24T01:56:45.105Z,45.147705
2018-09-24T01:57:14.372Z,45.050049
2018-09-24T01:57:43.633Z,45.147705
2018-09-24T01:58:12.920Z,45.147705
2018-09-24T01:58:42.241Z,44.628906
2018-09-24T01:59:11.472Z,44.53125
2018-09-24T01:59:40.732Z,44.549561
2018-09-24T02:00:10.003Z,44.42749
2018-09-24T02:00:39.305Z,44.329834
2018-09-24T02:01:08.574Z,44.152832
2018-09-24T02:01:37.842Z,45.074463
2018-09-24T02:02:07.084Z,45.294189
2018-09-24T02:02:36.375Z,45.495605
2018-09-24T02:03:05.644Z,45.690918
2018-09-24T02:03:34.928Z,46.118164
2018-09-24T02:04:05.182Z,46.618652
2018-09-24T02:04:34.442Z,46.618652
2018-09-24T02:05:03.726Z,46.514893
2018-09-24T02:05:32.988Z,46.417236
2018-09-24T02:06:02.288Z,46.417236
2018-09-24T02:06:31.547Z,46.313477
2018-09-24T02:07:00.789Z,46.313477
2018-09-24T02:07:30.065Z,46.313477
2018-09-24T02:07:59.345Z,46.514893
2018-09-24T02:08:28.591Z,46.936035
2018-09-24T02:08:57.850Z,46.936035
2018-09-24T02:09:27.149Z,47.241211
2018-09-24T02:09:56.425Z,46.838379
2018-09-24T02:10:25.703Z,46.838379
2018-09-24T02:10:55.013Z,46.740723
2018-09-24T02:11:24.288Z,46.838379
2018-09-24T02:11:53.551Z,46.636963
2018-09-24T02:12:22.839Z,46.539307
2018-09-24T02:12:52.110Z,46.539307
2018-09-24T02:13:21.383Z,46.636963
2018-09-24T02:13:50.643Z,47.039795
2018-09-24T02:14:19.923Z,46.936035
2018-09-24T02:14:49.180Z,47.039795
2018-09-24T02:15:18.469Z,47.259521
2018-09-24T02:15:47.742Z,47.259521
2018-09-24T02:16:17.060Z,47.161865
2018-09-24T02:16:46.322Z,47.259521
2018-09-24T02:17:15.589Z,47.363281
2018-09-24T02:17:44.862Z,47.363281
2018-09-24T02:18:14.172Z,47.259521
2018-09-24T02:18:43.455Z,47.039795
2018-09-24T02:19:12.766Z,47.137451
2018-09-24T02:19:42.065Z,47.137451
2018-09-24T02:20:11.337Z,47.015381
2018-09-24T02:20:40.614Z,46.417236
2018-09-24T02:21:09.953Z,48.516846
2018-09-24T02:21:39.229Z,46.295166
2018-09-24T02:22:08.509Z,45.892334
2018-09-24T02:22:37.802Z,45.892334
2018-09-24T02:23:07.096Z,45.794678
2018-09-24T02:23:36.379Z,45.794678
2018-09-24T02:24:05.745Z,45.892334
2018-09-24T02:24:35.005Z,46.313477
2018-09-24T02:25:04.266Z,46.813965
2018-09-24T02:25:33.545Z,46.838379
2018-09-24T02:26:02.804Z,47.137451
2018-09-24T02:26:32.130Z,47.137451
2018-09-24T02:27:01.385Z,47.460938
2018-09-24T02:27:30.669Z,47.558594
2018-09-24T02:27:59.920Z,47.662354
2018-09-24T02:28:29.201Z,47.76001
2018-09-24T02:28:58.474Z,47.86377
2018-09-24T02:29:27.732Z,48.083496
2018-09-24T02:29:56.992Z,47.98584
2018-09-24T02:30:26.279Z,48.083496
2018-09-24T02:30:55.567Z,47.98584
2018-09-24T02:31:24.885Z,47.88208
2018-09-24T02:31:54.163Z,51.77002
2018-09-24T02:32:24.424Z,47.961426
2018-09-24T02:32:53.693Z,47.558594
2018-09-24T02:33:22.966Z,47.76001
2018-09-24T02:33:52.270Z,47.86377
2018-09-24T02:34:21.554Z,48.083496
2018-09-24T02:34:50.877Z,48.083496
2018-09-24T02:35:20.137Z,48.187256
2018-09-24T02:35:49.432Z,48.187256
2018-09-24T02:36:18.704Z,48.187256
2018-09-24T02:36:49.024Z,48.284912
2018-09-24T02:37:18.289Z,48.284912
2018-09-24T02:37:47.559Z,47.88208
2018-09-24T02:38:17.801Z,47.88208
2018-09-24T02:38:47.048Z,48.864746
2018-09-24T02:39:16.335Z,47.460938
2018-09-24T02:39:45.615Z,47.241211
2018-09-24T02:40:14.922Z,47.039795
2018-09-24T02:40:44.176Z,46.740723
2018-09-24T02:41:13.461Z,46.838379
2018-09-24T02:41:43.749Z,46.740723
2018-09-24T02:42:13.066Z,46.936035
2018-09-24T02:42:42.347Z,46.838379
2018-09-24T02:43:11.608Z,46.838379
2018-09-24T02:43:40.887Z,46.936035
2018-09-24T02:44:10.790Z,47.039795
2018-09-24T02:44:40.085Z,47.015381
2018-09-24T02:45:09.347Z,46.813965
2018-09-24T02:45:38.615Z,46.118164
2018-09-24T02:46:07.872Z,46.014404
2018-09-24T02:46:37.119Z,46.313477
2018-09-24T02:47:06.448Z,47.015381
2018-09-24T02:47:35.709Z,45.715332
2018-09-24T02:48:05.006Z,45.41626
2018-09-24T02:48:34.280Z,45.715332
2018-09-24T02:49:03.538Z,46.118164
2018-09-24T02:49:33.788Z,46.136475
2018-09-24T02:50:03.040Z,46.337891
2018-09-24T02:50:32.298Z,46.636963
2018-09-24T02:51:01.573Z,46.557617
2018-09-24T02:51:30.841Z,46.759033
2018-09-24T02:52:00.153Z,46.862793
2018-09-24T02:52:29.413Z,47.058105
2018-09-24T02:52:58.687Z,46.759033
2018-09-24T02:53:27.951Z,46.759033
2018-09-24T02:53:57.226Z,46.862793
2018-09-24T02:54:26.519Z,46.862793
2018-09-24T02:54:55.779Z,46.862793
2018-09-24T02:55:25.052Z,46.960449
2018-09-24T02:55:55.293Z,46.759033
2018-09-24T02:56:24.557Z,46.539307
2018-09-24T02:56:53.837Z,46.539307
2018-09-24T02:57:23.179Z,46.936035
2018-09-24T02:57:52.467Z,49.243164
2018-09-24T02:58:21.741Z,46.618652
2018-09-24T02:58:51.014Z,46.514893
2018-09-24T02:59:20.303Z,46.313477
2018-09-24T02:59:49.584Z,46.014404
2018-09-24T03:00:18.844Z,45.593262
2018-09-24T03:00:48.158Z,46.795654
2018-09-24T03:01:17.484Z,45.996094
2018-09-24T03:01:46.719Z,45.495605
2018-09-24T03:02:16.037Z,45.97168
2018-09-24T03:02:45.315Z,44.970703
2018-09-24T03:03:14.594Z,44.970703
2018-09-24T03:03:44.876Z,44.873047
2018-09-24T03:04:14.187Z,44.671631
2018-09-24T03:04:43.489Z,44.873047
2018-09-24T03:05:12.752Z,45.074463
2018-09-24T03:05:42.078Z,44.671631
2018-09-24T03:06:11.305Z,44.970703
2018-09-24T03:06:40.573Z,44.671631
2018-09-24T03:07:09.849Z,44.873047
2018-09-24T03:07:39.198Z,44.873047
2018-09-24T03:08:08.490Z,44.372559
2018-09-24T03:08:37.775Z,44.470215
2018-09-24T03:09:07.042Z,44.372559
2018-09-24T03:09:36.402Z,44.372559
2018-09-24T03:10:05.651Z,44.372559
2018-09-24T03:10:34.909Z,44.451904
2018-09-24T03:11:04.171Z,44.274902
2018-09-24T03:11:33.470Z,44.171143
2018-09-24T03:12:02.763Z,44.671631
2018-09-24T03:12:32.157Z,44.470215
2018-09-24T03:13:01.426Z,44.274902
2018-09-24T03:13:30.723Z,44.274902
2018-09-24T03:13:59.975Z,44.372559
2018-09-24T03:14:29.264Z,44.451904
2018-09-24T03:14:58.530Z,44.250488
2018-09-24T03:15:27.791Z,44.049072
2018-09-24T03:15:57.081Z,43.951416
2018-09-24T03:16:26.372Z,43.85376
2018-09-24T03:16:55.629Z,44.152832
2018-09-24T03:17:24.925Z,43.97583
2018-09-24T03:17:54.233Z,44.372559
2018-09-24T03:18:23.510Z,44.494629
2018-09-24T03:18:52.787Z,44.793701
2018-09-24T03:19:22.085Z,45.196533
2018-09-24T03:19:51.365Z,44.995117
2018-09-24T03:20:20.626Z,44.891357
2018-09-24T03:20:49.933Z,45.196533
2018-09-24T03:21:19.196Z,44.995117
2018-09-24T03:21:48.483Z,44.793701
2018-09-24T03:22:17.758Z,44.696045
2018-09-24T03:22:47.117Z,44.696045
2018-09-24T03:23:16.395Z,44.793701
2018-09-24T03:23:45.687Z,44.793701
2018-09-24T03:24:15.003Z,44.995117
2018-09-24T03:24:44.286Z,44.995117
2018-09-24T03:25:13.565Z,44.793701
2018-09-24T03:25:42.851Z,44.696045
2018-09-24T03:26:13.151Z,44.793701
2018-09-24T03:26:42.391Z,44.671631
2018-09-24T03:27:11.678Z,44.470215
2018-09-24T03:27:40.980Z,44.671631
2018-09-24T03:28:10.344Z,44.573975
2018-09-24T03:28:39.629Z,44.573975
2018-09-24T03:29:08.915Z,44.671631
2018-09-24T03:29:38.230Z,44.549561
2018-09-24T03:30:07.549Z,44.549561
2018-09-24T03:30:36.826Z,44.549561
2018-09-24T03:31:06.127Z,44.451904
2018-09-24T03:31:35.411Z,44.750977
2018-09-24T03:32:04.749Z,44.65332
2018-09-24T03:32:34.006Z,44.354248
2018-09-24T03:33:03.348Z,44.549561
2018-09-24T03:33:32.601Z,44.573975
2018-09-24T03:34:01.916Z,44.470215
2018-09-24T03:34:31.219Z,44.372559
2018-09-24T03:35:00.491Z,44.274902
2018-09-24T03:35:29.858Z,44.372559
2018-09-24T03:35:59.170Z,44.470215
2018-09-24T03:36:28.437Z,44.793701
2018-09-24T03:36:57.715Z,45.092773
2018-09-24T03:37:27.004Z,45.3125
2018-09-24T03:37:56.325Z,45.41626
2018-09-24T03:38:25.650Z,45.391846
2018-09-24T03:38:54.912Z,45.196533
2018-09-24T03:39:24.241Z,44.891357
2018-09-24T03:39:53.518Z,44.793701
2018-09-24T03:40:23.811Z,45.013428
2018-09-24T03:40:53.201Z,45.3125
2018-09-24T03:41:22.479Z,45.214844
2018-09-24T03:41:51.771Z,45.214844
2018-09-24T03:42:21.014Z,45.117188
2018-09-24T03:42:50.339Z,45.013428
2018-09-24T03:43:19.710Z,44.995117
2018-09-24T03:43:49.037Z,44.995117
2018-09-24T03:44:18.393Z,44.995117
2018-09-24T03:44:47.622Z,44.995117
2018-09-24T03:45:16.893Z,44.995117
2018-09-24T03:45:46.157Z,45.196533
2018-09-24T03:46:15.473Z,44.818115
2018-09-24T03:46:44.769Z,44.915771
2018-09-24T03:47:14.046Z,44.915771
2018-09-24T03:47:43.419Z,45.117188
2018-09-24T03:48:13.681Z,45.117188
2018-09-24T03:48:43.061Z,45.41626
2018-09-24T03:49:12.344Z,47.814941
2018-09-24T03:49:41.631Z,47.595215
2018-09-24T03:50:10.903Z,48.669434
2018-09-24T03:50:40.209Z,45.074463
2018-09-24T03:51:09.507Z,44.372559
2018-09-24T03:51:38.792Z,44.494629
2018-09-24T03:52:08.068Z,44.995117
2018-09-24T03:52:37.318Z,45.391846
2018-09-24T03:53:06.607Z,44.793701
2018-09-24T03:53:35.964Z,44.390869
2018-09-24T03:54:05.285Z,44.293213
2018-09-24T03:54:34.635Z,44.293213
2018-09-24T03:55:03.872Z,44.891357
2018-09-24T03:55:33.196Z,44.390869
2018-09-24T03:56:02.481Z,45.294189
2018-09-24T03:56:31.759Z,44.696045
2018-09-24T03:57:01.049Z,50.292969
2018-09-24T03:57:30.332Z,50.469971
2018-09-24T03:57:59.612Z,45.452881
2018-09-24T03:58:28.913Z,44.152832
2018-09-24T03:58:58.266Z,44.152832
2018-09-24T03:59:27.552Z,44.671631
2018-09-24T03:59:56.871Z,43.97583
2018-09-24T04:00:26.149Z,44.073486
2018-09-24T04:00:56.440Z,44.372559
2018-09-24T04:01:25.758Z,44.171143
2018-09-24T04:01:55.068Z,44.073486
2018-09-24T04:02:24.377Z,44.293213
2018-09-24T04:02:53.670Z,44.714355
2018-09-24T04:03:22.971Z,45.013428
2018-09-24T04:03:52.304Z,44.915771
2018-09-24T04:04:21.621Z,45.117188
2018-09-24T04:04:50.932Z,45.214844
2018-09-24T04:05:20.198Z,45.214844
2018-09-24T04:05:49.468Z,44.915771
2018-09-24T04:06:18.763Z,44.818115
2018-09-24T04:06:48.055Z,45.135498
2018-09-24T04:07:17.332Z,45.43457
2018-09-24T04:07:46.622Z,45.239258
2018-09-24T04:08:15.895Z,45.239258
2018-09-24T04:08:45.162Z,45.239258
2018-09-24T04:09:14.492Z,45.135498
2018-09-24T04:09:43.800Z,45.239258
2018-09-24T04:10:13.084Z,45.336914
2018-09-24T04:10:42.356Z,45.53833
2018-09-24T04:11:11.589Z,45.336914
2018-09-24T04:11:40.865Z,45.3125
2018-09-24T04:12:10.116Z,45.214844
2018-09-24T04:12:39.436Z,45.117188
2018-09-24T04:13:08.715Z,45.3125
2018-09-24T04:13:38.027Z,45.196533
2018-09-24T04:14:07.508Z,44.915771
2018-09-24T04:14:36.787Z,45.214844
2018-09-24T04:15:06.091Z,45.43457
2018-09-24T04:15:35.368Z,45.739746
2018-09-24T04:16:04.781Z,45.861816
2018-09-24T04:16:35.090Z,45.959473
2018-09-24T04:17:04.416Z,47.839355
2018-09-24T04:17:33.681Z,46.038818
2018-09-24T04:18:03.042Z,46.160889
2018-09-24T04:18:32.339Z,46.557617
2018-09-24T04:19:01.636Z,46.679688
2018-09-24T04:19:31.190Z,46.984863
2018-09-24T04:20:00.645Z,47.406006
2018-09-24T04:20:30.008Z,47.906494
2018-09-24T04:21:00.287Z,47.906494
2018-09-24T04:21:29.572Z,47.808838
2018-09-24T04:21:58.864Z,47.906494
2018-09-24T04:22:28.136Z,47.808838
2018-09-24T04:22:57.390Z,47.808838
2018-09-24T04:23:26.702Z,47.607422
2018-09-24T04:23:55.988Z,47.485352
2018-09-24T04:24:25.342Z,47.186279
2018-09-24T04:24:54.656Z,46.679688
2018-09-24T04:25:23.930Z,46.679688
2018-09-24T04:25:53.195Z,46.661377
2018-09-24T04:26:22.516Z,47.058105
2018-09-24T04:26:52.763Z,46.557617
2018-09-24T04:27:22.032Z,46.160889
2018-09-24T04:27:51.291Z,46.362305
2018-09-24T04:28:20.567Z,46.459961
2018-09-24T04:28:49.865Z,46.557617
2018-09-24T04:29:19.133Z,46.557617
2018-09-24T04:29:48.461Z,46.459961
2018-09-24T04:30:17.742Z,46.362305
2018-09-24T04:30:46.998Z,46.539307
2018-09-24T04:31:16.275Z,46.337891
2018-09-24T04:31:45.526Z,46.136475
2018-09-24T04:32:14.822Z,45.935059
2018-09-24T04:32:44.095Z,46.160889
2018-09-24T04:33:13.412Z,46.160889
2018-09-24T04:33:42.691Z,46.160889
2018-09-24T04:34:11.969Z,45.935059
2018-09-24T04:34:41.308Z,45.959473
2018-09-24T04:35:10.633Z,45.959473
2018-09-24T04:35:39.915Z,45.959473
2018-09-24T04:36:10.177Z,46.057129
2018-09-24T04:36:39.451Z,45.861816
2018-09-24T04:37:08.746Z,45.837402
2018-09-24T04:37:38.047Z,45.935059
2018-09-24T04:38:07.323Z,45.837402
2018-09-24T04:38:36.612Z,45.861816
2018-09-24T04:39:05.910Z,46.057129
2018-09-24T04:39:35.299Z,46.258545
2018-09-24T04:40:04.525Z,46.258545
2018-09-24T04:40:33.809Z,46.661377
2018-09-24T04:41:03.099Z,46.783447
2018-09-24T04:41:32.388Z,47.08252
2018-09-24T04:42:01.675Z,46.881104
2018-09-24T04:42:31.932Z,47.08252
2018-09-24T04:43:01.201Z,47.283936
2018-09-24T04:43:30.465Z,47.705078
2018-09-24T04:43:59.742Z,47.705078
2018-09-24T04:44:29.998Z,47.808838
2018-09-24T04:44:59.326Z,47.705078
2018-09-24T04:45:28.593Z,47.583008
2018-09-24T04:45:57.894Z,47.686768
2018-09-24T04:46:27.198Z,47.583008
2018-09-24T04:46:56.482Z,47.058105
2018-09-24T04:47:25.758Z,46.862793
2018-09-24T04:47:55.058Z,46.838379
2018-09-24T04:48:24.332Z,46.936035
2018-09-24T04:48:53.631Z,46.740723
2018-09-24T04:49:23.930Z,46.539307
2018-09-24T04:49:53.214Z,46.838379
2018-09-24T04:50:22.598Z,46.435547
2018-09-24T04:50:51.897Z,45.812988
2018-09-24T04:51:21.191Z,45.53833
2018-09-24T04:51:50.591Z,45.739746
2018-09-24T04:52:19.950Z,45.739746
2018-09-24T04:52:49.288Z,45.635986
2018-09-24T04:53:19.571Z,45.861816
2018-09-24T04:53:48.958Z,46.160889
2018-09-24T04:54:18.342Z,46.582031
2018-09-24T04:54:47.616Z,47.20459
2018-09-24T04:55:16.980Z,47.106934
2018-09-24T04:55:46.281Z,47.20459
2018-09-24T04:56:17.594Z,47.607422
2018-09-24T04:56:46.896Z,47.729492
2018-09-24T04:57:16.200Z,47.930908
2018-09-24T04:57:45.506Z,47.930908
2018-09-24T04:58:16.778Z,47.930908
2018-09-24T04:58:46.155Z,48.028564
2018-09-24T04:59:15.420Z,48.010254
2018-09-24T04:59:44.801Z,47.906494
2018-09-24T05:00:14.101Z,47.784424
2018-09-24T05:00:43.460Z,47.283936
2018-09-24T05:01:12.764Z,47.186279
2018-09-24T05:01:42.065Z,47.161865
2018-09-24T05:02:11.332Z,46.862793
2018-09-24T05:02:40.691Z,46.759033
2018-09-24T05:03:10.006Z,46.759033
2018-09-24T05:03:39.322Z,46.661377
2018-09-24T05:04:08.643Z,46.661377
2018-09-24T05:04:37.939Z,46.240234
2018-09-24T05:05:07.256Z,46.057129
2018-09-24T05:05:37.579Z,46.160889
2018-09-24T05:06:06.885Z,46.557617
2018-09-24T05:06:36.164Z,46.582031
2018-09-24T05:07:05.479Z,46.984863
2018-09-24T05:07:34.783Z,46.679688
2018-09-24T05:08:04.100Z,46.679688
2018-09-24T05:08:33.391Z,46.984863
2018-09-24T05:09:02.702Z,46.881104
2018-09-24T05:09:31.974Z,46.783447
2018-09-24T05:10:01.265Z,46.783447
2018-09-24T05:10:30.552Z,46.984863
2018-09-24T05:10:59.921Z,47.186279
2018-09-24T05:11:29.212Z,46.881104
2018-09-24T05:11:58.502Z,47.283936
2018-09-24T05:12:27.779Z,47.406006
2018-09-24T05:12:57.109Z,48.083496
2018-09-24T05:13:26.415Z,47.686768
2018-09-24T05:13:55.700Z,47.283936
2018-09-24T05:14:25.002Z,47.186279
2018-09-24T05:14:54.321Z,47.283936
2018-09-24T05:15:23.612Z,47.283936
2018-09-24T05:15:52.966Z,47.485352
2018-09-24T05:16:22.315Z,47.583008
2018-09-24T05:16:51.623Z,47.363281
2018-09-24T05:17:21.899Z,47.161865
2018-09-24T05:17:52.756Z,46.960449
2018-09-24T05:18:22.076Z,46.862793
2018-09-24T05:18:51.369Z,46.557617
2018-09-24T05:19:20.652Z,46.636963
2018-09-24T05:19:49.955Z,46.740723
2018-09-24T05:20:19.246Z,46.740723
2018-09-24T05:20:48.546Z,46.838379
2018-09-24T05:21:18.914Z,47.314453
2018-09-24T05:21:48.167Z,47.314453
2018-09-24T05:22:17.436Z,46.417236
2018-09-24T05:22:46.706Z,46.313477
2018-09-24T05:23:16.002Z,46.21582
2018-09-24T05:23:45.263Z,45.916748
2018-09-24T05:24:14.549Z,45.916748
2018-09-24T05:24:44.801Z,45.812988
2018-09-24T05:25:14.084Z,45.916748
2018-09-24T05:25:43.372Z,46.118164
2018-09-24T05:26:12.661Z,46.014404
2018-09-24T05:26:41.963Z,45.916748
2018-09-24T05:27:11.305Z,45.715332
2018-09-24T05:27:40.596Z,46.118164
2018-09-24T05:28:09.811Z,45.916748
2018-09-24T05:28:39.080Z,45.812988
2018-09-24T05:29:08.342Z,45.513916
2018-09-24T05:29:37.605Z,45.513916
2018-09-24T05:30:06.962Z,45.513916
2018-09-24T05:30:36.280Z,45.513916
2018-09-24T05:31:05.609Z,45.617676
2018-09-24T05:31:34.955Z,45.617676
2018-09-24T05:32:05.212Z,45.513916
2018-09-24T05:32:34.486Z,45.812988
2018-09-24T05:33:03.779Z,45.916748
2018-09-24T05:33:33.049Z,46.392822
2018-09-24T05:34:02.351Z,45.794678
2018-09-24T05:34:31.693Z,45.617676
2018-09-24T05:35:00.884Z,46.038818
2018-09-24T05:35:30.172Z,46.459961
2018-09-24T05:35:59.431Z,46.783447
2018-09-24T05:36:28.771Z,47.283936